TimePDT,TemperatureF,Dew PointF,Humidity,Sea Level PressureIn,VisibilityMPH,Wind Direction,Wind SpeedMPH,Gust SpeedMPH,PrecipitationIn,Events,Conditions,WindDirDegrees,DateUTC
12:56 AM,54.0,46.9,77,29.96,8.0,South,17.3,27.6,0.00,Rain,Light Rain,170,2012-03-13 07:56:00
1:56 AM,55.0,46.0,72,29.95,10.0,SSE,21.9,31.1,0.00,,Overcast,160,2012-03-13 08:56:00
2:56 AM,55.0,46.9,74,29.94,9.0,SSE,19.6,34.5,0.00,Rain,Light Rain,160,2012-03-13 09:56:00
3:56 AM,53.1,48.0,83,29.92,6.0,South,23.0,38.0,0.00,Rain,Light Rain,170,2012-03-13 10:56:00
4:09 AM,53.6,48.2,82,29.91,2.5,South,20.7,-,0.00,Rain,Rain,170,2012-03-13 11:09:00
4:21 AM,53.6,48.2,82,29.91,3.0,SSE,20.7,-,0.01,Rain,Light Rain,160,2012-03-13 11:21:00
4:41 AM,53.6,48.2,82,29.90,2.5,South,20.7,32.2,0.02,Rain,Light Rain,170,2012-03-13 11:41:00
4:56 AM,53.1,48.9,86,29.90,3.0,South,20.7,27.6,0.03,Rain,Light Rain,170,2012-03-13 11:56:00
5:56 AM,53.1,48.0,83,29.90,10.0,South,27.6,35.7,0.01,,Overcast,170,2012-03-13 12:56:00
6:56 AM,53.1,48.0,83,29.92,5.0,South,18.4,25.3,0.00,Rain,Light Rain,180,2012-03-13 13:56:00
7:56 AM,53.1,48.0,83,29.94,3.0,South,20.7,28.8,0.03,Rain,Light Rain,170,2012-03-13 14:56:00
8:56 AM,53.1,48.9,86,29.95,4.0,South,20.7,25.3,0.05,Rain,Rain,170,2012-03-13 15:56:00
9:56 AM,54.0,51.1,90,29.96,4.0,South,23.0,28.8,0.07,Rain,Light Rain,170,2012-03-13 16:56:00
10:56 AM,54.0,52.0,93,29.96,4.0,South,20.7,27.6,0.06,Rain,Rain,170,2012-03-13 17:56:00
11:56 AM,54.0,51.1,90,29.96,4.0,South,24.2,32.2,0.05,Rain,Light Rain,170,2012-03-13 18:56:00
12:56 PM,55.4,51.8,88,29.96,8.0,South,25.3,32.2,N/A,Rain,Light Rain,180,2012-03-13 19:56:00
1:56 PM,55.0,51.1,86,29.96,5.0,South,26.5,35.7,0.03,Rain,Light Rain,170,2012-03-13 20:56:00
2:56 PM,54.0,50.0,86,29.96,10.0,South,19.6,29.9,0.03,Rain,Light Rain,170,2012-03-13 21:56:00
3:49 PM,55.4,50.0,82,29.97,10.0,South,23.0,31.1,0.01,Rain,Light Rain,180,2012-03-13 22:49:00
3:56 PM,55.0,50.0,83,29.97,10.0,South,25.3,31.1,0.01,Rain,Light Rain,170,2012-03-13 22:56:00
4:56 PM,55.0,50.0,83,29.96,10.0,South,20.7,28.8,0.00,Rain,Light Rain,170,2012-03-13 23:56:00
5:16 PM,55.4,50.0,82,29.97,10.0,SSE,17.3,35.7,0.00,,Overcast,160,2012-03-14 00:16:00
5:56 PM,55.0,48.9,80,29.97,10.0,SSE,18.4,-,0.00,Rain,Light Rain,160,2012-03-14 00:56:00
6:56 PM,55.0,50.0,83,29.98,10.0,South,16.1,-,0.00,Rain,Light Rain,170,2012-03-14 01:56:00
7:56 PM,54.0,50.0,86,29.98,10.0,SE,10.4,-,0.02,Rain,Light Rain,140,2012-03-14 02:56:00
8:56 PM,54.0,50.0,86,29.98,10.0,SSE,15.0,20.7,0.02,Rain,Light Rain,150,2012-03-14 03:56:00
9:56 PM,55.0,50.0,83,29.99,9.0,SSE,11.5,20.7,0.00,Rain,Light Rain,150,2012-03-14 04:56:00
10:56 PM,55.0,50.0,83,29.99,10.0,South,17.3,25.3,0.00,Rain,Light Rain,170,2012-03-14 05:56:00
11:40 PM,55.4,51.8,88,29.99,10.0,South,20.7,29.9,0.01,Rain,Light Rain,170,2012-03-14 06:40:00
11:56 PM,55.9,51.1,84,29.99,10.0,South,17.3,-,0.01,,Overcast,170,2012-03-14 06:56:00